sensor_id;sensor_type;location;lat;lon;timestamp;pressure;altitude;pressure_sealevel;temperature;humidity
79461;BME280;68929;42.666;23.324;2023-12-28T00:01:22;95594.81;;;12.36;50.77
79461;BME280;68929;42.666;23.324;2023-12-28T00:03:48;95615.47;;;12.60;50.15
79461;BME280;68929;42.666;23.324;2023-12-28T00:06:14;95622.41;;;12.61;50.38
79461;BME280;68929;42.666;23.324;2023-12-28T00:08:40;95615.88;;;12.63;50.48
79461;BME280;68929;42.666;23.324;2023-12-28T00:11:05;95625.66;;;12.63;50.39
79461;BME280;68929;42.666;23.324;2023-12-28T00:13:34;95622.41;;;12.61;50.14
79461;BME280;68929;42.666;23.324;2023-12-28T00:15:59;95625.63;;;12.30;49.42
79461;BME280;68929;42.666;23.324;2023-12-28T00:18:25;95632.09;;;12.21;50.52
79461;BME280;68929;42.666;23.324;2023-12-28T00:20:50;95615.66;;;12.52;50.57
79461;BME280;68929;42.666;23.324;2023-12-28T00:23:16;95614.66;;;12.92;48.62
79461;BME280;68929;42.666;23.324;2023-12-28T00:25:41;95607.50;;;12.73;49.08
79461;BME280;68929;42.666;23.324;2023-12-28T00:28:07;95606.25;;;12.56;49.41
79461;BME280;68929;42.666;23.324;2023-12-28T00:30:32;95624.84;;;12.43;49.57
79461;BME280;68929;42.666;23.324;2023-12-28T00:32:58;95614.16;;;12.17;50.10
79461;BME280;68929;42.666;23.324;2023-12-28T00:35:23;95645.03;;;11.90;50.71
79461;BME280;68929;42.666;23.324;2023-12-28T00:37:49;95635.31;;;12.10;50.49
79461;BME280;68929;42.666;23.324;2023-12-28T00:40:14;95642.75;;;12.28;50.32
79461;BME280;68929;42.666;23.324;2023-12-28T00:42:40;95641.94;;;12.34;50.30
79461;BME280;68929;42.666;23.324;2023-12-28T00:45:07;95635.19;;;12.31;50.28
79461;BME280;68929;42.666;23.324;2023-12-28T00:47:32;95639.91;;;12.42;50.39
79461;BME280;68929;42.666;23.324;2023-12-28T00:49:58;95651.31;;;12.36;50.25
79461;BME280;68929;42.666;23.324;2023-12-28T00:52:23;95634.16;;;12.26;50.42
79461;BME280;68929;42.666;23.324;2023-12-28T00:54:49;95655.84;;;12.42;50.56
79461;BME280;68929;42.666;23.324;2023-12-28T00:57:14;95635.41;;;12.30;49.31
79461;BME280;68929;42.666;23.324;2023-12-28T00:59:39;95658.47;;;12.36;49.38
79461;BME280;68929;42.666;23.324;2023-12-28T01:02:05;95637.03;;;12.37;49.81
79461;BME280;68929;42.666;23.324;2023-12-28T01:04:30;95621.94;;;12.38;49.40
79461;BME280;68929;42.666;23.324;2023-12-28T01:06:55;95642.16;;;12.39;49.44
79461;BME280;68929;42.666;23.324;2023-12-28T01:09:21;95655.84;;;12.42;50.31
79461;BME280;68929;42.666;23.324;2023-12-28T01:11:46;95653.56;;;12.39;49.64
79461;BME280;68929;42.666;23.324;2023-12-28T01:14:12;95637.88;;;12.38;49.89
79461;BME280;68929;42.666;23.324;2023-12-28T01:16:37;95627.38;;;12.03;50.06
79461;BME280;68929;42.666;23.324;2023-12-28T01:19:05;95655.94;;;12.15;49.74
79461;BME280;68929;42.666;23.324;2023-12-28T01:21:30;95654.19;;;11.87;49.74
79461;BME280;68929;42.666;23.324;2023-12-28T01:23:56;95662.22;;;12.00;50.14
79461;BME280;68929;42.666;23.324;2023-12-28T01:26:21;95646.19;;;12.22;49.81
79461;BME280;68929;42.666;23.324;2023-12-28T01:28:46;95649.50;;;12.37;50.14
79461;BME280;68929;42.666;23.324;2023-12-28T01:31:12;95648.09;;;12.54;49.50
79461;BME280;68929;42.666;23.324;2023-12-28T01:33:37;95651.59;;;12.61;49.54
79461;BME280;68929;42.666;23.324;2023-12-28T01:36:20;95639.53;;;12.58;49.44
79461;BME280;68929;42.666;23.324;2023-12-28T01:38:47;95645.25;;;12.49;49.58
79461;BME280;68929;42.666;23.324;2023-12-28T01:41:13;95634.78;;;12.28;49.68
79461;BME280;68929;42.666;23.324;2023-12-28T01:43:43;95623.53;;;12.13;49.91
79461;BME280;68929;42.666;23.324;2023-12-28T01:46:12;95646.81;;;12.30;50.10
79461;BME280;68929;42.666;23.324;2023-12-28T01:48:41;95635.34;;;12.03;49.87
79461;BME280;68929;42.666;23.324;2023-12-28T01:51:07;95622.50;;;11.66;50.71
79461;BME280;68929;42.666;23.324;2023-12-28T01:53:33;95645.47;;;11.93;50.51
79461;BME280;68929;42.666;23.324;2023-12-28T01:55:59;95642.84;;;12.00;50.78
79461;BME280;68929;42.666;23.324;2023-12-28T01:58:26;95633.69;;;12.02;50.71
79461;BME280;68929;42.666;23.324;2023-12-28T02:00:55;95620.19;;;11.97;50.36
79461;BME280;68929;42.666;23.324;2023-12-28T02:03:21;95629.38;;;12.01;50.34
79461;BME280;68929;42.666;23.324;2023-12-28T02:05:46;95635.53;;;12.09;50.36
79461;BME280;68929;42.666;23.324;2023-12-28T02:08:12;95650.03;;;12.13;50.59
79461;BME280;68929;42.666;23.324;2023-12-28T02:10:39;95634.16;;;12.26;50.43
79461;BME280;68929;42.666;23.324;2023-12-28T02:13:04;95623.75;;;12.18;50.32
79461;BME280;68929;42.666;23.324;2023-12-28T02:15:29;95624.38;;;12.20;50.25
79461;BME280;68929;42.666;23.324;2023-12-28T02:18:11;95628.81;;;12.13;50.42
79461;BME280;68929;42.666;23.324;2023-12-28T02:20:39;95634.13;;;12.13;49.89
79461;BME280;68929;42.666;23.324;2023-12-28T02:23:05;95631.75;;;11.83;49.43
79461;BME280;68929;42.666;23.324;2023-12-28T02:25:31;95626.13;;;11.59;50.28
79461;BME280;68929;42.666;23.324;2023-12-28T02:27:57;95624.22;;;11.80;50.96
79461;BME280;68929;42.666;23.324;2023-12-28T02:30:23;95637.75;;;11.98;50.45
79461;BME280;68929;42.666;23.324;2023-12-28T02:35:43;95634.28;;;11.98;50.13
79461;BME280;68929;42.666;23.324;2023-12-28T02:38:12;95643.00;;;11.58;50.06
79461;BME280;68929;42.666;23.324;2023-12-28T02:40:40;95649.31;;;11.57;51.16
79461;BME280;68929;42.666;23.324;2023-12-28T02:43:06;95627.25;;;11.77;50.72
79461;BME280;68929;42.666;23.324;2023-12-28T02:45:33;95623.03;;;11.89;50.46
79461;BME280;68929;42.666;23.324;2023-12-28T02:47:58;95606.47;;;11.81;50.56
79461;BME280;68929;42.666;23.324;2023-12-28T02:50:24;95642.06;;;12.13;50.27
79461;BME280;68929;42.666;23.324;2023-12-28T02:52:49;95600.06;;;12.10;49.46
79461;BME280;68929;42.666;23.324;2023-12-28T02:55:14;95593.25;;;11.87;50.03
79461;BME280;68929;42.666;23.324;2023-12-28T02:57:40;95630.81;;;12.04;50.12
79461;BME280;68929;42.666;23.324;2023-12-28T03:00:06;95609.22;;;12.00;50.01
79461;BME280;68929;42.666;23.324;2023-12-28T03:02:34;95587.38;;;11.92;49.68
79461;BME280;68929;42.666;23.324;2023-12-28T03:04:59;95603.03;;;11.87;49.66
79461;BME280;68929;42.666;23.324;2023-12-28T03:07:25;95618.09;;;11.80;50.46
79461;BME280;68929;42.666;23.324;2023-12-28T03:09:50;95619.41;;;11.97;50.01
79461;BME280;68929;42.666;23.324;2023-12-28T03:12:15;95583.22;;;11.70;49.98
79461;BME280;68929;42.666;23.324;2023-12-28T03:14:41;95602.72;;;12.10;49.78
79461;BME280;68929;42.666;23.324;2023-12-28T03:17:07;95613.16;;;12.24;48.88
79461;BME280;68929;42.666;23.324;2023-12-28T03:19:32;95618.16;;;11.99;49.32
79461;BME280;68929;42.666;23.324;2023-12-28T03:21:57;95594.38;;;11.65;49.90
79461;BME280;68929;42.666;23.324;2023-12-28T03:24:23;95594.63;;;12.37;49.25
79461;BME280;68929;42.666;23.324;2023-12-28T03:26:48;95607.13;;;12.89;47.89
79461;BME280;68929;42.666;23.324;2023-12-28T03:29:13;95595.69;;;12.49;48.59
79461;BME280;68929;42.666;23.324;2023-12-28T03:31:39;95604.44;;;12.50;48.70
79461;BME280;68929;42.666;23.324;2023-12-28T03:34:05;95597.25;;;12.18;48.74
79461;BME280;68929;42.666;23.324;2023-12-28T03:36:31;95616.97;;;12.09;49.66
79461;BME280;68929;42.666;23.324;2023-12-28T03:38:56;95621.44;;;12.01;49.70
79461;BME280;68929;42.666;23.324;2023-12-28T03:41:22;95597.84;;;11.66;50.27
79461;BME280;68929;42.666;23.324;2023-12-28T03:43:48;95636.09;;;11.97;50.35
79461;BME280;68929;42.666;23.324;2023-12-28T03:46:13;95632.44;;;11.98;50.22
79461;BME280;68929;42.666;23.324;2023-12-28T03:48:39;95637.91;;;11.90;50.23
79461;BME280;68929;42.666;23.324;2023-12-28T03:51:04;95621.66;;;11.59;50.41
79461;BME280;68929;42.666;23.324;2023-12-28T03:53:31;95650.22;;;11.70;50.60
79461;BME280;68929;42.666;23.324;2023-12-28T03:55:58;95653.81;;;11.56;50.98
79461;BME280;68929;42.666;23.324;2023-12-28T03:58:23;95648.50;;;11.56;51.09
79461;BME280;68929;42.666;23.324;2023-12-28T04:00:49;95657.94;;;11.65;50.84
79461;BME280;68929;42.666;23.324;2023-12-28T04:03:14;95652.50;;;11.46;51.08
79461;BME280;68929;42.666;23.324;2023-12-28T04:05:40;95652.44;;;11.33;51.02
79461;BME280;68929;42.666;23.324;2023-12-28T04:08:05;95655.72;;;11.07;52.18
79461;BME280;68929;42.666;23.324;2023-12-28T04:10:32;95652.59;;;10.76;51.19
79461;BME280;68929;42.666;23.324;2023-12-28T04:12:58;95645.56;;;10.40;52.00
79461;BME280;68929;42.666;23.324;2023-12-28T04:15:26;95634.34;;;10.17;52.10
79461;BME280;68929;42.666;23.324;2023-12-28T04:17:51;95654.22;;;10.13;53.29
79461;BME280;68929;42.666;23.324;2023-12-28T04:20:17;95633.69;;;9.65;53.43
79461;BME280;68929;42.666;23.324;2023-12-28T04:22:42;95662.03;;;10.21;53.00
79461;BME280;68929;42.666;23.324;2023-12-28T04:25:09;95658.16;;;10.38;52.89
79461;BME280;68929;42.666;23.324;2023-12-28T04:27:35;95657.50;;;10.58;52.13
79461;BME280;68929;42.666;23.324;2023-12-28T04:30:00;95627.69;;;10.42;51.96
79461;BME280;68929;42.666;23.324;2023-12-28T04:32:25;95651.44;;;10.85;52.32
79461;BME280;68929;42.666;23.324;2023-12-28T04:34:52;95653.44;;;11.04;51.94
79461;BME280;68929;42.666;23.324;2023-12-28T04:37:19;95628.16;;;10.95;50.46
79461;BME280;68929;42.666;23.324;2023-12-28T04:39:45;95653.91;;;11.14;51.74
79461;BME280;68929;42.666;23.324;2023-12-28T04:42:11;95632.13;;;11.12;50.99
79461;BME280;68929;42.666;23.324;2023-12-28T04:44:39;95641.88;;;11.39;50.20
79461;BME280;68929;42.666;23.324;2023-12-28T04:47:05;95638.13;;;11.27;50.99
79461;BME280;68929;42.666;23.324;2023-12-28T04:49:30;95632.75;;;11.14;50.40
79461;BME280;68929;42.666;23.324;2023-12-28T04:51:56;95629.28;;;10.86;51.79
79461;BME280;68929;42.666;23.324;2023-12-28T04:54:22;95649.41;;;10.80;51.39
79461;BME280;68929;42.666;23.324;2023-12-28T04:56:47;95632.06;;;10.99;50.84
79461;BME280;68929;42.666;23.324;2023-12-28T04:59:13;95653.66;;;11.30;50.36
79461;BME280;68929;42.666;23.324;2023-12-28T05:01:45;95635.44;;;11.20;50.69
79461;BME280;68929;42.666;23.324;2023-12-28T05:04:11;95602.19;;;11.05;50.99
79461;BME280;68929;42.666;23.324;2023-12-28T05:06:37;95647.53;;;11.30;51.52
79461;BME280;68929;42.666;23.324;2023-12-28T05:09:03;95643.84;;;11.24;51.20
79461;BME280;68929;42.666;23.324;2023-12-28T05:11:29;95642.59;;;11.26;51.17
79461;BME280;68929;42.666;23.324;2023-12-28T05:13:54;95624.69;;;11.28;50.88
79461;BME280;68929;42.666;23.324;2023-12-28T05:16:20;95639.84;;;11.41;50.62
79461;BME280;68929;42.666;23.324;2023-12-28T05:18:48;95621.16;;;11.43;50.50
79461;BME280;68929;42.666;23.324;2023-12-28T05:21:14;95632.94;;;11.40;50.29
79461;BME280;68929;42.666;23.324;2023-12-28T05:23:39;95656.56;;;11.69;50.21
79461;BME280;68929;42.666;23.324;2023-12-28T05:26:05;95645.66;;;11.51;50.07
79461;BME280;68929;42.666;23.324;2023-12-28T05:28:31;95641.41;;;11.29;49.93
79461;BME280;68929;42.666;23.324;2023-12-28T05:30:57;95651.41;;;11.06;50.99
79461;BME280;68929;42.666;23.324;2023-12-28T05:33:27;95627.09;;;11.17;50.40
79461;BME280;68929;42.666;23.324;2023-12-28T05:35:52;95623.13;;;11.06;50.17
79461;BME280;68929;42.666;23.324;2023-12-28T05:38:17;95659.41;;;11.40;50.25
79461;BME280;68929;42.666;23.324;2023-12-28T05:40:43;95637.16;;;11.28;49.98
79461;BME280;68929;42.666;23.324;2023-12-28T05:43:12;95650.91;;;11.45;49.96
79461;BME280;68929;42.666;23.324;2023-12-28T05:45:37;95641.34;;;11.50;49.33
79461;BME280;68929;42.666;23.324;2023-12-28T05:48:03;95674.78;;;11.51;49.05
79461;BME280;68929;42.666;23.324;2023-12-28T05:50:28;95646.75;;;11.08;49.75
79461;BME280;68929;42.666;23.324;2023-12-28T05:52:53;95670.81;;;11.41;50.01
79461;BME280;68929;42.666;23.324;2023-12-28T05:55:20;95647.63;;;11.43;49.28
79461;BME280;68929;42.666;23.324;2023-12-28T05:57:45;95641.88;;;11.39;49.23
79461;BME280;68929;42.666;23.324;2023-12-28T06:00:11;95673.75;;;11.52;49.48
79461;BME280;68929;42.666;23.324;2023-12-28T06:02:37;95659.84;;;11.16;49.76
79461;BME280;68929;42.666;23.324;2023-12-28T06:05:02;95668.03;;;11.21;50.01
79461;BME280;68929;42.666;23.324;2023-12-28T06:07:28;95680.88;;;11.24;50.01
79461;BME280;68929;42.666;23.324;2023-12-28T06:09:53;95681.84;;;11.44;49.75
79461;BME280;68929;42.666;23.324;2023-12-28T06:12:19;95679.03;;;11.52;48.91
79461;BME280;68929;42.666;23.324;2023-12-28T06:14:44;95640.31;;;11.17;50.01
79461;BME280;68929;42.666;23.324;2023-12-28T06:17:09;95666.44;;;11.26;50.41
79461;BME280;68929;42.666;23.324;2023-12-28T06:19:35;95662.53;;;11.22;50.02
79461;BME280;68929;42.666;23.324;2023-12-28T06:22:00;95674.41;;;11.33;50.43
79461;BME280;68929;42.666;23.324;2023-12-28T06:24:26;95683.03;;;11.42;50.28
79461;BME280;68929;42.666;23.324;2023-12-28T06:26:51;95687.19;;;11.51;50.24
79461;BME280;68929;42.666;23.324;2023-12-28T06:29:17;95659.84;;;11.44;49.92
79461;BME280;68929;42.666;23.324;2023-12-28T06:31:42;95685.69;;;11.69;49.85
79461;BME280;68929;42.666;23.324;2023-12-28T06:34:07;95671.72;;;11.54;49.92
79461;BME280;68929;42.666;23.324;2023-12-28T06:36:33;95684.88;;;11.69;49.65
79461;BME280;68929;42.666;23.324;2023-12-28T06:38:59;95669.13;;;11.61;49.46
79461;BME280;68929;42.666;23.324;2023-12-28T06:41:25;95690.22;;;11.75;49.04
79461;BME280;68929;42.666;23.324;2023-12-28T06:43:53;95686.41;;;11.84;48.44
79461;BME280;68929;42.666;23.324;2023-12-28T06:46:19;95684.59;;;11.91;48.40
79461;BME280;68929;42.666;23.324;2023-12-28T06:48:45;95673.06;;;11.71;48.97
79461;BME280;68929;42.666;23.324;2023-12-28T06:51:18;95688.59;;;11.74;48.48
79461;BME280;68929;42.666;23.324;2023-12-28T06:53:45;95682.56;;;11.93;48.68
79461;BME280;68929;42.666;23.324;2023-12-28T06:56:10;95700.97;;;12.08;48.37
79461;BME280;68929;42.666;23.324;2023-12-28T06:58:35;95685.81;;;11.95;47.94
79461;BME280;68929;42.666;23.324;2023-12-28T07:01:04;95672.78;;;11.94;48.17
79461;BME280;68929;42.666;23.324;2023-12-28T07:03:29;95673.53;;;11.81;48.33
79461;BME280;68929;42.666;23.324;2023-12-28T07:06:01;95684.19;;;11.94;48.51
79461;BME280;68929;42.666;23.324;2023-12-28T07:08:26;95676.16;;;12.16;47.72
79461;BME280;68929;42.666;23.324;2023-12-28T07:10:52;95684.75;;;12.24;47.92
79461;BME280;68929;42.666;23.324;2023-12-28T07:13:17;95702.25;;;12.19;48.12
79461;BME280;68929;42.666;23.324;2023-12-28T07:15:43;95696.94;;;12.19;48.56
79461;BME280;68929;42.666;23.324;2023-12-28T07:18:08;95680.81;;;12.14;47.95
79461;BME280;68929;42.666;23.324;2023-12-28T07:20:34;95681.84;;;12.19;47.60
79461;BME280;68929;42.666;23.324;2023-12-28T07:22:59;95699.03;;;12.30;47.78
79461;BME280;68929;42.666;23.324;2023-12-28T07:25:25;95686.69;;;12.02;48.26
79461;BME280;68929;42.666;23.324;2023-12-28T07:27:50;95672.56;;;11.95;48.15
79461;BME280;68929;42.666;23.324;2023-12-28T07:30:16;95703.81;;;12.07;48.65
79461;BME280;68929;42.666;23.324;2023-12-28T07:32:42;95688.34;;;12.10;48.05
79461;BME280;68929;42.666;23.324;2023-12-28T07:35:10;95695.19;;;11.91;48.62
79461;BME280;68929;42.666;23.324;2023-12-28T07:37:36;95692.31;;;11.86;48.61
79461;BME280;68929;42.666;23.324;2023-12-28T07:40:01;95696.91;;;12.06;48.15
79461;BME280;68929;42.666;23.324;2023-12-28T07:42:28;95709.97;;;12.14;48.73
79461;BME280;68929;42.666;23.324;2023-12-28T07:44:54;95701.78;;;12.09;48.21
79461;BME280;68929;42.666;23.324;2023-12-28T07:47:19;95685.88;;;12.09;47.69
79461;BME280;68929;42.666;23.324;2023-12-28T07:49:44;95705.13;;;12.24;47.32
79461;BME280;68929;42.666;23.324;2023-12-28T07:52:10;95683.84;;;12.11;47.60
79461;BME280;68929;42.666;23.324;2023-12-28T07:54:35;95689.34;;;12.02;47.99
79461;BME280;68929;42.666;23.324;2023-12-28T07:57:01;95718.25;;;12.45;47.67
79461;BME280;68929;42.666;23.324;2023-12-28T07:59:26;95703.59;;;12.49;47.42
79461;BME280;68929;42.666;23.324;2023-12-28T08:01:52;95690.47;;;12.28;47.13
79461;BME280;68929;42.666;23.324;2023-12-28T08:04:17;95704.41;;;12.49;47.29
79461;BME280;68929;42.666;23.324;2023-12-28T08:06:42;95687.88;;;12.54;47.00
79461;BME280;68929;42.666;23.324;2023-12-28T08:09:08;95710.97;;;12.73;46.83
79461;BME280;68929;42.666;23.324;2023-12-28T08:11:34;95694.69;;;12.89;46.76
79461;BME280;68929;42.666;23.324;2023-12-28T08:13:59;95702.66;;;12.96;46.64
79461;BME280;68929;42.666;23.324;2023-12-28T08:16:25;95684.88;;;12.83;46.58
79461;BME280;68929;42.666;23.324;2023-12-28T08:18:51;95685.72;;;12.90;46.81
79461;BME280;68929;42.666;23.324;2023-12-28T08:21:19;95686.53;;;12.84;46.82
79461;BME280;68929;42.666;23.324;2023-12-28T08:23:45;95686.09;;;12.87;46.51
79461;BME280;68929;42.666;23.324;2023-12-28T08:26:10;95684.09;;;12.89;46.79
79461;BME280;68929;42.666;23.324;2023-12-28T08:28:36;95694.75;;;13.28;45.31
79461;BME280;68929;42.666;23.324;2023-12-28T08:31:02;95674.72;;;13.19;45.33
79461;BME280;68929;42.666;23.324;2023-12-28T08:33:27;95670.63;;;13.36;45.57
79461;BME280;68929;42.666;23.324;2023-12-28T08:35:52;95691.47;;;13.39;45.45
79461;BME280;68929;42.666;23.324;2023-12-28T08:38:18;95669.81;;;13.16;46.13
79461;BME280;68929;42.666;23.324;2023-12-28T08:40:43;95681.25;;;13.36;45.64
79461;BME280;68929;42.666;23.324;2023-12-28T08:43:13;95695.75;;;13.21;44.65
79461;BME280;68929;42.666;23.324;2023-12-28T08:45:38;95691.03;;;13.03;44.96
79461;BME280;68929;42.666;23.324;2023-12-28T08:48:04;95664.66;;;12.69;45.66
79461;BME280;68929;42.666;23.324;2023-12-28T08:50:30;95675.69;;;12.79;46.66
79461;BME280;68929;42.666;23.324;2023-12-28T08:52:55;95669.19;;;12.95;46.03
79461;BME280;68929;42.666;23.324;2023-12-28T08:55:21;95652.63;;;12.86;45.37
79461;BME280;68929;42.666;23.324;2023-12-28T08:57:47;95650.19;;;12.78;46.29
79461;BME280;68929;42.666;23.324;2023-12-28T09:00:13;95648.16;;;12.80;46.17
79461;BME280;68929;42.666;23.324;2023-12-28T09:02:40;95636.31;;;12.89;46.07
79461;BME280;68929;42.666;23.324;2023-12-28T09:05:06;95656.13;;;12.93;46.60
79461;BME280;68929;42.666;23.324;2023-12-28T09:07:32;95644.50;;;13.07;46.37
79461;BME280;68929;42.666;23.324;2023-12-28T09:09:57;95650.63;;;13.34;46.07
79461;BME280;68929;42.666;23.324;2023-12-28T09:12:23;95621.59;;;13.45;45.38
79461;BME280;68929;42.666;23.324;2023-12-28T09:14:48;95634.81;;;13.65;45.20
79461;BME280;68929;42.666;23.324;2023-12-28T09:17:13;95642.78;;;13.72;45.18
79461;BME280;68929;42.666;23.324;2023-12-28T09:19:39;95640.72;;;13.74;44.71
79461;BME280;68929;42.666;23.324;2023-12-28T09:22:06;95637.44;;;13.85;45.15
79461;BME280;68929;42.666;23.324;2023-12-28T09:24:31;95624.69;;;14.00;44.72
79461;BME280;68929;42.666;23.324;2023-12-28T09:26:56;95632.59;;;14.13;44.39
79461;BME280;68929;42.666;23.324;2023-12-28T09:29:24;95629.63;;;13.90;44.68
79461;BME280;68929;42.666;23.324;2023-12-28T09:31:50;95620.22;;;13.94;45.54
79461;BME280;68929;42.666;23.324;2023-12-28T09:34:15;95613.97;;;14.19;45.48
79461;BME280;68929;42.666;23.324;2023-12-28T09:36:40;95597.75;;;14.34;44.96
79461;BME280;68929;42.666;23.324;2023-12-28T09:39:06;95599.47;;;13.64;45.40
79461;BME280;68929;42.666;23.324;2023-12-28T09:41:36;95597.81;;;13.70;44.35
79461;BME280;68929;42.666;23.324;2023-12-28T09:44:15;95598.03;;;14.13;45.25
79461;BME280;68929;42.666;23.324;2023-12-28T09:46:41;95580.47;;;14.12;44.81
79461;BME280;68929;42.666;23.324;2023-12-28T09:49:08;95593.69;;;14.25;44.32
79461;BME280;68929;42.666;23.324;2023-12-28T09:51:34;95582.41;;;14.36;44.16
79461;BME280;68929;42.666;23.324;2023-12-28T09:54:00;95570.16;;;14.35;43.82
79461;BME280;68929;42.666;23.324;2023-12-28T09:56:26;95574.00;;;13.37;46.26
79461;BME280;68929;42.666;23.324;2023-12-28T09:58:53;95564.03;;;13.13;46.46
79461;BME280;68929;42.666;23.324;2023-12-28T10:01:19;95578.06;;;13.46;46.19
79461;BME280;68929;42.666;23.324;2023-12-28T10:03:45;95572.38;;;13.94;45.45
79461;BME280;68929;42.666;23.324;2023-12-28T10:06:10;95552.13;;;13.99;44.96
79461;BME280;68929;42.666;23.324;2023-12-28T10:08:36;95544.72;;;14.08;45.34
79461;BME280;68929;42.666;23.324;2023-12-28T10:11:02;95539.84;;;14.36;45.01
79461;BME280;68929;42.666;23.324;2023-12-28T10:13:28;95558.34;;;14.80;44.39
79461;BME280;68929;42.666;23.324;2023-12-28T10:15:57;95547.78;;;14.67;44.19
79461;BME280;68929;42.666;23.324;2023-12-28T10:18:23;95536.66;;;14.52;44.33
79461;BME280;68929;42.666;23.324;2023-12-28T10:20:53;95543.88;;;14.45;43.96
79461;BME280;68929;42.666;23.324;2023-12-28T10:23:19;95549.84;;;14.65;43.39
79461;BME280;68929;42.666;23.324;2023-12-28T10:25:45;95541.13;;;14.83;44.51
79461;BME280;68929;42.666;23.324;2023-12-28T10:28:15;95538.78;;;14.68;44.36
79461;BME280;68929;42.666;23.324;2023-12-28T10:30:44;95531.78;;;14.74;44.32
79461;BME280;68929;42.666;23.324;2023-12-28T10:33:09;95502.66;;;14.54;44.65
79461;BME280;68929;42.666;23.324;2023-12-28T10:35:35;95504.66;;;14.83;44.85
79461;BME280;68929;42.666;23.324;2023-12-28T10:38:00;95512.66;;;14.59;45.03
79461;BME280;68929;42.666;23.324;2023-12-28T10:40:28;95498.59;;;14.76;44.56
79461;BME280;68929;42.666;23.324;2023-12-28T10:43:01;95463.09;;;14.64;44.64
79461;BME280;68929;42.666;23.324;2023-12-28T10:45:30;95477.78;;;14.91;44.35
79461;BME280;68929;42.666;23.324;2023-12-28T10:50:22;95480.50;;;15.46;43.40
79461;BME280;68929;42.666;23.324;2023-12-28T10:52:54;95472.97;;;15.36;43.13
79461;BME280;68929;42.666;23.324;2023-12-28T10:55:33;95467.88;;;15.53;43.03
79461;BME280;68929;42.666;23.324;2023-12-28T10:58:05;95472.03;;;15.49;43.04
79461;BME280;68929;42.666;23.324;2023-12-28T11:00:36;95458.41;;;15.57;43.03
79461;BME280;68929;42.666;23.324;2023-12-28T11:03:09;95441.25;;;15.53;42.77
79461;BME280;68929;42.666;23.324;2023-12-28T11:05:37;95458.25;;;15.70;42.37
79461;BME280;68929;42.666;23.324;2023-12-28T11:08:08;95444.22;;;15.45;42.40
79461;BME280;68929;42.666;23.324;2023-12-28T11:10:35;95435.47;;;15.19;43.62
79461;BME280;68929;42.666;23.324;2023-12-28T11:13:02;95444.25;;;15.38;43.38
79461;BME280;68929;42.666;23.324;2023-12-28T11:15:29;95431.31;;;15.23;43.48
79461;BME280;68929;42.666;23.324;2023-12-28T11:17:56;95438.25;;;15.61;42.77
79461;BME280;68929;42.666;23.324;2023-12-28T11:20:21;95419.66;;;15.43;43.24
79461;BME280;68929;42.666;23.324;2023-12-28T11:22:48;95410.09;;;15.17;43.66
79461;BME280;68929;42.666;23.324;2023-12-28T11:25:15;95432.00;;;15.37;42.66
79461;BME280;68929;42.666;23.324;2023-12-28T11:27:40;95426.59;;;15.44;43.20
79461;BME280;68929;42.666;23.324;2023-12-28T11:30:07;95406.94;;;15.56;42.66
79461;BME280;68929;42.666;23.324;2023-12-28T11:32:40;95418.75;;;15.78;42.56
79461;BME280;68929;42.666;23.324;2023-12-28T11:35:07;95415.59;;;15.70;42.00
79461;BME280;68929;42.666;23.324;2023-12-28T11:37:38;95402.25;;;15.70;43.07
79461;BME280;68929;42.666;23.324;2023-12-28T11:40:16;95384.25;;;15.54;42.77
79461;BME280;68929;42.666;23.324;2023-12-28T11:42:52;95372.88;;;15.47;42.95
79461;BME280;68929;42.666;23.324;2023-12-28T11:45:19;95393.72;;;15.32;43.65
79461;BME280;68929;42.666;23.324;2023-12-28T11:47:45;95397.00;;;15.52;43.85
79461;BME280;68929;42.666;23.324;2023-12-28T11:50:11;95358.53;;;15.59;43.27
79461;BME280;68929;42.666;23.324;2023-12-28T11:52:38;95393.72;;;15.79;43.14
79461;BME280;68929;42.666;23.324;2023-12-28T11:55:03;95354.53;;;15.20;43.56
79461;BME280;68929;42.666;23.324;2023-12-28T11:57:30;95389.44;;;15.31;44.12
79461;BME280;68929;42.666;23.324;2023-12-28T11:59:57;95379.59;;;15.31;43.60
79461;BME280;68929;42.666;23.324;2023-12-28T12:02:23;95385.59;;;15.74;43.63
79461;BME280;68929;42.666;23.324;2023-12-28T12:04:49;95386.41;;;15.75;43.05
79461;BME280;68929;42.666;23.324;2023-12-28T12:07:15;95382.44;;;15.66;43.47
79461;BME280;68929;42.666;23.324;2023-12-28T12:09:42;95376.88;;;15.67;43.39
79461;BME280;68929;42.666;23.324;2023-12-28T12:12:07;95359.69;;;15.52;43.48
79461;BME280;68929;42.666;23.324;2023-12-28T12:14:34;95364.94;;;15.70;43.65
79461;BME280;68929;42.666;23.324;2023-12-28T12:17:00;95361.84;;;15.43;43.16
79461;BME280;68929;42.666;23.324;2023-12-28T12:19:25;95331.16;;;15.23;43.79
79461;BME280;68929;42.666;23.324;2023-12-28T12:21:55;95358.03;;;15.51;43.91
79461;BME280;68929;42.666;23.324;2023-12-28T12:24:33;95337.97;;;15.78;43.12
79461;BME280;68929;42.666;23.324;2023-12-28T12:26:58;95360.13;;;15.90;43.06
79461;BME280;68929;42.666;23.324;2023-12-28T12:29:29;95360.25;;;15.95;42.31
79461;BME280;68929;42.666;23.324;2023-12-28T12:31:55;95358.06;;;16.04;42.92
79461;BME280;68929;42.666;23.324;2023-12-28T12:34:21;95376.19;;;15.72;42.15
79461;BME280;68929;42.666;23.324;2023-12-28T12:36:47;95367.09;;;15.50;43.34
79461;BME280;68929;42.666;23.324;2023-12-28T12:39:14;95373.00;;;15.34;43.89
79461;BME280;68929;42.666;23.324;2023-12-28T12:41:39;95361.91;;;15.37;43.20
79461;BME280;68929;42.666;23.324;2023-12-28T12:44:05;95360.25;;;15.36;42.41
79461;BME280;68929;42.666;23.324;2023-12-28T12:46:31;95357.38;;;14.71;44.23
79461;BME280;68929;42.666;23.324;2023-12-28T12:49:00;95372.63;;;14.64;45.74
79461;BME280;68929;42.666;23.324;2023-12-28T12:51:29;95350.88;;;15.03;43.77